Terminal Aerodrome Forecast
Issued by NWS

Home | Current Version | Previous Version | Text Only | Print | Product List | Glossary On
Versions: 1 2 3 4 5 6 7 8 9 10 11 12 13 14 15 16 17 18 19 20 21 22
000
FTUS43 KDLH 171100
TAFHYR
TAF
KHYR 171124Z 1712/1812 30006KT 6SM -SN OVC014
      TEMPO 1712/1716 3SM -SN
     FM171700 33004KT P6SM -SN OVC018
     FM172200 36003KT P6SM OVC023
     FM180700 VRB02KT P6SM OVC016=

USA.gov is the U.S. government's official web portal to all federal, state and local government web resources and services.